Terminal Aerodrome Forecast
Issued by NWS

Home | Current Version | Previous Version | Text Only | Print | Product List | Glossary On
Versions: 1 2 3 4 5 6 7 8 9 10 11 12 13 14
000
FTUS42 KMLB 290006 AAA
TAFTIX
TAF AMD
KTIX 290006Z 2900/2924 08012KT P6SM SCT040
     FM290200 06007KT P6SM FEW035
     FM291400 08013G19KT P6SM VCSH SCT030 BKN040
      AMD NOT SKED 2902/2912=

USA.gov is the U.S. government's official web portal to all federal, state and local government web resources and services.